Time;durP1;ratioP1;P1;durP2;ratioP2;P2;SDS_P1;SDS_P2;PMS_P1;PMS_P2;Temp;Humidity;BMP_temperature;BMP_pressure;BME280_temperature;BME280_humidity;BME280_pressure;Samples;Min_cycle;Max_cycle;Signal;HPM_P1;HPM_P2
2023/10/23 00:00:23;;;;;;;11.52;8.35;;;;;;;;;;1044104;28;20044;-66
2023/10/23 00:01:14;;;;;;;11.65;8.70;;;;;;;;;;1044727;28;20083;-65
2023/10/23 00:01:46;;;;;;;11.52;8.13;;;;;;;;;;1044144;28;20052;-65
2023/10/23 00:02:16;;;;;;;12.27;8.32;;;;;;;;;;1043829;28;20056;-66
2023/10/23 00:02:47;;;;;;;11.45;8.27;;;;;;;;;;1046419;28;20136;-64
2023/10/23 00:03:17;;;;;;;12.63;8.55;;;;;;;;;;1045405;28;20051;-65
2023/10/23 00:03:48;;;;;;;12.85;8.77;;;;;;;;;;1045670;28;20071;-65
2023/10/23 00:04:19;;;;;;;13.55;9.40;;;;;;;;;;1045440;28;20044;-66
2023/10/23 00:04:49;;;;;;;12.27;9.38;;;;;;;;;;1045728;28;20048;-66
2023/10/23 00:05:20;;;;;;;11.60;8.32;;;;;;;;;;1046119;28;20161;-65
2023/10/23 00:05:51;;;;;;;13.43;9.60;;;;;;;;;;1044016;28;20053;-65
2023/10/23 00:06:21;;;;;;;13.65;8.43;;;;;;;;;;1044039;28;20052;-65
2023/10/23 00:06:52;;;;;;;11.55;8.07;;;;;;;;;;1043376;28;20048;-66
2023/10/23 00:07:22;;;;;;;14.00;9.32;;;;;;;;;;1044876;28;20539;-65
2023/10/23 00:07:53;;;;;;;11.85;8.55;;;;;;;;;;1042565;28;20045;-65
2023/10/23 00:08:23;;;;;;;13.93;8.55;;;;;;;;;;1050936;28;20047;-65
2023/10/23 00:08:54;;;;;;;11.35;8.43;;;;;;;;;;1050927;28;20055;-65
2023/10/23 00:09:24;;;;;;;12.60;8.48;;;;;;;;;;1051769;28;20047;-65
2023/10/23 00:09:55;;;;;;;11.65;8.73;;;;;;;;;;1047540;28;20040;-66
2023/10/23 00:10:25;;;;;;;13.57;8.75;;;;;;;;;;1043795;28;20727;-65
2023/10/23 00:10:56;;;;;;;15.63;9.00;;;;;;;;;;1049344;28;20059;-65
2023/10/23 00:11:28;;;;;;;16.30;9.18;;;;;;;;;;1047713;28;20055;-64
2023/10/23 00:11:59;;;;;;;15.32;9.32;;;;;;;;;;1052249;28;20062;-64
2023/10/23 00:12:29;;;;;;;15.70;9.75;;;;;;;;;;1052048;28;20162;-65
2023/10/23 00:13:00;;;;;;;15.10;8.98;;;;;;;;;;1044894;28;20048;-64
2023/10/23 00:13:30;;;;;;;12.15;9.05;;;;;;;;;;1043310;28;22310;-64
2023/10/23 00:14:02;;;;;;;10.63;8.20;;;;;;;;;;1046438;28;20036;-65
2023/10/23 00:14:32;;;;;;;13.27;8.85;;;;;;;;;;1044345;28;20049;-64
2023/10/23 00:15:03;;;;;;;13.35;8.63;;;;;;;;;;1045503;28;20048;-65
2023/10/23 00:15:34;;;;;;;12.35;8.90;;;;;;;;;;1044706;28;20393;-66
2023/10/23 00:16:04;;;;;;;11.82;8.93;;;;;;;;;;1043325;28;20048;-66
2023/10/23 00:16:35;;;;;;;11.63;8.40;;;;;;;;;;1040349;28;20048;-65
2023/10/23 00:17:05;;;;;;;15.45;9.80;;;;;;;;;;1045280;28;21414;-65
2023/10/23 00:17:36;;;;;;;12.57;8.80;;;;;;;;;;1045092;28;20481;-64
2023/10/23 00:18:06;;;;;;;12.77;9.02;;;;;;;;;;1044212;28;22083;-65
2023/10/23 00:18:37;;;;;;;13.23;8.38;;;;;;;;;;1044150;28;20903;-66
2023/10/23 00:19:07;;;;;;;13.73;9.20;;;;;;;;;;1044102;28;20444;-65
2023/10/23 00:19:38;;;;;;;13.55;9.57;;;;;;;;;;1045142;28;20051;-66
2023/10/23 00:20:09;;;;;;;12.30;9.60;;;;;;;;;;1045366;28;20072;-65
2023/10/23 00:20:40;;;;;;;14.60;9.55;;;;;;;;;;1043053;28;20049;-65
2023/10/23 00:21:11;;;;;;;12.20;9.25;;;;;;;;;;1043783;28;20055;-64
2023/10/23 00:21:42;;;;;;;13.63;8.63;;;;;;;;;;1045006;28;20067;-64
2023/10/23 00:22:13;;;;;;;12.80;7.65;;;;;;;;;;1044097;28;20040;-64
2023/10/23 00:22:44;;;;;;;11.07;8.43;;;;;;;;;;1043965;28;20044;-64
2023/10/23 00:23:14;;;;;;;12.27;8.57;;;;;;;;;;1043067;28;20045;-65
2023/10/23 00:23:45;;;;;;;13.55;8.30;;;;;;;;;;1046444;28;20062;-64
2023/10/23 00:24:15;;;;;;;12.70;8.90;;;;;;;;;;1044874;28;20060;-66
2023/10/23 00:24:46;;;;;;;13.75;8.68;;;;;;;;;;1044873;28;20083;-64
2023/10/23 00:25:16;;;;;;;12.63;8.23;;;;;;;;;;1041209;28;20046;-65
2023/10/23 00:25:47;;;;;;;11.25;7.97;;;;;;;;;;1043690;28;20793;-65
2023/10/23 00:26:17;;;;;;;11.93;8.13;;;;;;;;;;1045177;28;20393;-65
2023/10/23 00:26:49;;;;;;;11.88;8.48;;;;;;;;;;1045979;28;20060;-65
2023/10/23 00:27:19;;;;;;;14.30;8.95;;;;;;;;;;1045799;28;20044;-65
2023/10/23 00:27:50;;;;;;;11.40;8.63;;;;;;;;;;1045963;28;20056;-65
2023/10/23 00:28:20;;;;;;;13.65;9.55;;;;;;;;;;1042724;28;20044;-65
2023/10/23 00:28:51;;;;;;;13.93;9.45;;;;;;;;;;1046036;28;20048;-66
2023/10/23 00:29:21;;;;;;;15.20;9.05;;;;;;;;;;1044726;28;20534;-65
2023/10/23 00:29:52;;;;;;;14.45;9.30;;;;;;;;;;1042911;28;20060;-65
2023/10/23 00:30:23;;;;;;;13.88;9.43;;;;;;;;;;1041283;28;20493;-65
2023/10/23 00:30:53;;;;;;;12.07;8.85;;;;;;;;;;1042852;28;20835;-65
2023/10/23 00:31:24;;;;;;;14.15;8.82;;;;;;;;;;1045167;28;20060;-65
2023/10/23 00:31:54;;;;;;;15.32;9.80;;;;;;;;;;1042750;28;20605;-65
2023/10/23 00:32:24;;;;;;;14.30;10.50;;;;;;;;;;1044596;28;20053;-65
2023/10/23 00:32:55;;;;;;;14.52;9.38;;;;;;;;;;1042080;28;20085;-65
2023/10/23 00:33:26;;;;;;;13.48;10.18;;;;;;;;;;1044701;28;20051;-65
2023/10/23 00:33:56;;;;;;;13.57;9.57;;;;;;;;;;1045984;28;20076;-64
2023/10/23 00:34:27;;;;;;;14.80;10.32;;;;;;;;;;1045160;28;20045;-66
2023/10/23 00:34:58;;;;;;;14.40;10.30;;;;;;;;;;1043454;28;20552;-66
2023/10/23 00:35:28;;;;;;;13.98;10.23;;;;;;;;;;1043236;28;20052;-65
2023/10/23 00:35:59;;;;;;;17.63;10.43;;;;;;;;;;1044554;28;20136;-65
2023/10/23 00:36:29;;;;;;;15.20;10.43;;;;;;;;;;1044269;28;20037;-64
2023/10/23 00:37:00;;;;;;;13.05;8.90;;;;;;;;;;1043450;28;20091;-65
2023/10/23 00:37:30;;;;;;;15.15;8.98;;;;;;;;;;1045569;28;20060;-64
2023/10/23 00:38:01;;;;;;;13.38;9.30;;;;;;;;;;1045319;28;20072;-64
2023/10/23 00:38:32;;;;;;;13.80;9.25;;;;;;;;;;1045687;28;20118;-64
2023/10/23 00:39:02;;;;;;;13.80;9.70;;;;;;;;;;1044940;28;20488;-65
2023/10/23 00:39:33;;;;;;;14.60;9.80;;;;;;;;;;1044457;28;20101;-66
2023/10/23 00:40:04;;;;;;;15.25;10.40;;;;;;;;;;1046177;28;20049;-65
2023/10/23 00:40:34;;;;;;;14.27;9.52;;;;;;;;;;1042190;28;20082;-64
2023/10/23 00:41:05;;;;;;;13.65;9.15;;;;;;;;;;1044307;28;20226;-65
2023/10/23 00:41:35;;;;;;;13.20;9.85;;;;;;;;;;1043424;28;20074;-66
2023/10/23 00:42:06;;;;;;;15.43;9.93;;;;;;;;;;1044500;28;20049;-64
2023/10/23 00:42:37;;;;;;;13.50;9.80;;;;;;;;;;1042880;28;20397;-66
2023/10/23 00:43:22;;;;;;;13.65;9.68;;;;;;;;;;1042988;28;20421;-65
2023/10/23 00:43:52;;;;;;;15.20;10.00;;;;;;;;;;1043394;28;20052;-65
2023/10/23 00:44:23;;;;;;;12.77;9.70;;;;;;;;;;1045552;28;20102;-65
2023/10/23 00:44:53;;;;;;;12.10;9.85;;;;;;;;;;1042480;28;20221;-64
2023/10/23 00:45:24;;;;;;;13.90;10.00;;;;;;;;;;1045270;28;20405;-65
2023/10/23 00:46:15;;;;;;;14.00;9.70;;;;;;;;;;1042922;28;20099;-64
2023/10/23 00:46:46;;;;;;;13.38;9.80;;;;;;;;;;1039376;28;21257;-65
2023/10/23 00:47:18;;;;;;;12.38;8.90;;;;;;;;;;1040950;28;20056;-65
2023/10/23 00:47:49;;;;;;;12.93;10.10;;;;;;;;;;1045634;28;20177;-65
2023/10/23 00:48:21;;;;;;;14.27;9.85;;;;;;;;;;1044373;28;20044;-64
2023/10/23 00:48:53;;;;;;;12.57;9.93;;;;;;;;;;1045283;28;20048;-65
2023/10/23 00:49:24;;;;;;;15.10;9.68;;;;;;;;;;1044159;28;20102;-64
2023/10/23 00:49:56;;;;;;;12.27;9.65;;;;;;;;;;1044909;28;20074;-65
2023/10/23 00:50:27;;;;;;;14.43;9.75;;;;;;;;;;1042451;28;20055;-64
2023/10/23 00:50:59;;;;;;;19.25;9.88;;;;;;;;;;1044494;28;20048;-65
2023/10/23 00:51:30;;;;;;;16.08;10.45;;;;;;;;;;1042201;28;20437;-65
2023/10/23 00:52:01;;;;;;;16.20;10.45;;;;;;;;;;1046107;28;20825;-64
2023/10/23 00:52:31;;;;;;;14.18;10.23;;;;;;;;;;1044110;28;20056;-65
2023/10/23 00:53:02;;;;;;;17.33;9.95;;;;;;;;;;1044428;28;20045;-64
2023/10/23 00:53:37;;;;;;;13.93;10.18;;;;;;;;;;1043683;28;20113;-65
2023/10/23 00:54:08;;;;;;;13.60;10.45;;;;;;;;;;1045228;28;20048;-65
2023/10/23 00:54:39;;;;;;;14.40;10.15;;;;;;;;;;1042847;28;20072;-66
2023/10/23 00:55:11;;;;;;;17.48;11.13;;;;;;;;;;1045736;28;20049;-65
2023/10/23 00:55:43;;;;;;;18.38;10.63;;;;;;;;;;1044700;28;20528;-64
2023/10/23 00:56:14;;;;;;;14.50;10.00;;;;;;;;;;1045538;28;20254;-66
2023/10/23 00:56:45;;;;;;;19.73;11.00;;;;;;;;;;1043846;28;20060;-65
2023/10/23 00:57:15;;;;;;;16.13;10.27;;;;;;;;;;1046202;28;20122;-64
2023/10/23 00:57:46;;;;;;;16.10;10.60;;;;;;;;;;1045389;28;20131;-64
2023/10/23 00:58:16;;;;;;;19.75;11.30;;;;;;;;;;1043282;28;20412;-64
2023/10/23 00:58:47;;;;;;;15.63;10.40;;;;;;;;;;1045234;28;20071;-65
2023/10/23 00:59:19;;;;;;;15.55;11.45;;;;;;;;;;1045349;28;20106;-65
2023/10/23 00:59:50;;;;;;;14.00;10.30;;;;;;;;;;1046169;28;20394;-65
2023/10/23 01:00:21;;;;;;;16.58;10.82;;;;;;;;;;1042676;28;20553;-64
2023/10/23 01:00:55;;;;;;;17.95;10.88;;;;;;;;;;1044755;28;20052;-66
2023/10/23 01:01:28;;;;;;;17.33;11.07;;;;;;;;;;1043848;28;20045;-65
2023/10/23 01:01:59;;;;;;;14.25;10.65;;;;;;;;;;1045365;28;20389;-66
2023/10/23 01:02:30;;;;;;;15.68;10.80;;;;;;;;;;1043061;28;20404;-64
2023/10/23 01:03:01;;;;;;;16.42;11.15;;;;;;;;;;1046290;28;20127;-64
2023/10/23 01:03:32;;;;;;;19.48;12.68;;;;;;;;;;1044510;28;20590;-65
2023/10/23 01:04:04;;;;;;;17.42;12.15;;;;;;;;;;1046151;28;20507;-65
2023/10/23 01:04:35;;;;;;;19.02;13.02;;;;;;;;;;1043426;28;20051;-65
2023/10/23 01:05:06;;;;;;;18.15;12.20;;;;;;;;;;1045859;28;20102;-65
2023/10/23 01:05:37;;;;;;;19.10;13.30;;;;;;;;;;1044184;28;20150;-65
2023/10/23 01:06:09;;;;;;;20.15;12.50;;;;;;;;;;1045199;28;20043;-65
2023/10/23 01:06:40;;;;;;;19.33;11.95;;;;;;;;;;1044047;28;20052;-66
2023/10/23 01:07:10;;;;;;;17.05;11.32;;;;;;;;;;1044748;28;20052;-65
2023/10/23 01:07:40;;;;;;;18.35;12.57;;;;;;;;;;1045599;28;20163;-66
2023/10/23 01:08:11;;;;;;;16.88;11.90;;;;;;;;;;1043025;28;20053;-63
2023/10/23 01:08:42;;;;;;;18.83;12.50;;;;;;;;;;1043822;28;20746;-66
2023/10/23 01:09:13;;;;;;;16.23;12.10;;;;;;;;;;1044862;28;20812;-65
2023/10/23 01:09:43;;;;;;;16.73;12.02;;;;;;;;;;1045956;28;20488;-64
2023/10/23 01:10:14;;;;;;;17.48;12.75;;;;;;;;;;1043140;28;20140;-65
2023/10/23 01:10:45;;;;;;;17.02;12.00;;;;;;;;;;1045468;28;20044;-66
2023/10/23 01:11:16;;;;;;;16.40;11.65;;;;;;;;;;1043639;28;20387;-65
2023/10/23 01:11:46;;;;;;;16.70;12.75;;;;;;;;;;1044608;28;20121;-64
2023/10/23 01:12:17;;;;;;;15.90;11.73;;;;;;;;;;1042899;28;20247;-65
2023/10/23 01:12:47;;;;;;;19.13;12.30;;;;;;;;;;1043887;28;20558;-65
2023/10/23 01:13:19;;;;;;;15.75;11.68;;;;;;;;;;1042257;28;20067;-67
2023/10/23 01:13:50;;;;;;;20.67;12.65;;;;;;;;;;1043753;28;20695;-65
2023/10/23 01:14:20;;;;;;;16.45;11.40;;;;;;;;;;1044068;28;20621;-65
2023/10/23 01:14:51;;;;;;;17.13;12.07;;;;;;;;;;1045672;28;20055;-65
2023/10/23 01:15:22;;;;;;;18.45;12.40;;;;;;;;;;1043663;28;20048;-65
2023/10/23 01:15:53;;;;;;;19.63;13.05;;;;;;;;;;1045780;28;20538;-65
2023/10/23 01:16:23;;;;;;;18.55;12.98;;;;;;;;;;1046328;28;20052;-64
2023/10/23 01:16:54;;;;;;;17.83;12.07;;;;;;;;;;1046799;28;20105;-64
2023/10/23 01:17:24;;;;;;;18.80;12.30;;;;;;;;;;1045129;28;20520;-64
2023/10/23 01:17:56;;;;;;;15.98;11.30;;;;;;;;;;1045724;28;20464;-65
2023/10/23 01:18:26;;;;;;;18.73;11.57;;;;;;;;;;1045489;28;20044;-65
2023/10/23 01:18:57;;;;;;;19.13;12.10;;;;;;;;;;1045841;28;20048;-65
2023/10/23 01:19:27;;;;;;;18.90;11.63;;;;;;;;;;1044561;28;20072;-66
2023/10/23 01:19:58;;;;;;;17.73;11.68;;;;;;;;;;1046205;28;20052;-65
2023/10/23 01:20:29;;;;;;;17.13;11.50;;;;;;;;;;1045408;28;20491;-66
2023/10/23 01:21:00;;;;;;;17.10;11.18;;;;;;;;;;1046123;28;20448;-65
2023/10/23 01:21:30;;;;;;;20.40;12.02;;;;;;;;;;1045138;28;20484;-66
2023/10/23 01:22:01;;;;;;;16.38;11.77;;;;;;;;;;1044627;28;20069;-64
2023/10/23 01:22:32;;;;;;;15.75;12.40;;;;;;;;;;1045548;28;20063;-64
2023/10/23 01:23:02;;;;;;;17.10;11.50;;;;;;;;;;1044842;28;20508;-65
2023/10/23 01:23:36;;;;;;;14.52;11.10;;;;;;;;;;1045317;28;20053;-66
2023/10/23 01:24:08;;;;;;;16.30;10.90;;;;;;;;;;1044769;28;20051;-64
2023/10/23 01:24:41;;;;;;;16.35;11.00;;;;;;;;;;1046625;28;20053;-64
2023/10/23 01:25:15;;;;;;;16.42;10.68;;;;;;;;;;1044246;28;20052;-66
2023/10/23 01:25:45;;;;;;;14.88;10.63;;;;;;;;;;1045241;28;20049;-65
2023/10/23 01:26:16;;;;;;;15.05;10.30;;;;;;;;;;1046262;28;20432;-65
2023/10/23 01:26:46;;;;;;;18.25;10.95;;;;;;;;;;1047232;28;20055;-65
2023/10/23 01:27:17;;;;;;;14.07;9.55;;;;;;;;;;1042964;28;20102;-65
2023/10/23 01:27:47;;;;;;;17.15;11.43;;;;;;;;;;1044075;28;20048;-64
2023/10/23 01:28:18;;;;;;;14.18;9.88;;;;;;;;;;1046430;28;20428;-65
2023/10/23 01:28:48;;;;;;;11.43;9.48;;;;;;;;;;1045617;28;20052;-64
2023/10/23 01:29:19;;;;;;;12.90;10.40;;;;;;;;;;1046252;28;20136;-66
2023/10/23 01:29:50;;;;;;;16.23;10.48;;;;;;;;;;1045894;28;20735;-66
2023/10/23 01:30:21;;;;;;;15.30;10.75;;;;;;;;;;1044768;28;20044;-64
2023/10/23 01:30:51;;;;;;;18.23;10.75;;;;;;;;;;1045180;28;20055;-66
2023/10/23 01:31:22;;;;;;;17.38;11.13;;;;;;;;;;1044623;28;20047;-64
2023/10/23 01:31:52;;;;;;;17.40;10.77;;;;;;;;;;1046281;28;20056;-64
2023/10/23 01:32:23;;;;;;;14.15;10.10;;;;;;;;;;1045353;28;20052;-66
2023/10/23 01:32:54;;;;;;;15.63;10.18;;;;;;;;;;1044240;28;20041;-65
2023/10/23 01:33:24;;;;;;;12.93;10.43;;;;;;;;;;1044819;28;20048;-65
2023/10/23 01:33:55;;;;;;;10.20;8.75;;;;;;;;;;1045474;28;20040;-65
2023/10/23 01:34:26;;;;;;;14.20;9.98;;;;;;;;;;1045741;28;20052;-64
2023/10/23 01:34:56;;;;;;;12.43;9.80;;;;;;;;;;1046124;28;20048;-65
2023/10/23 01:35:27;;;;;;;12.70;9.38;;;;;;;;;;1043507;28;20060;-66
2023/10/23 01:35:57;;;;;;;13.23;9.15;;;;;;;;;;1044782;28;20499;-64
2023/10/23 01:36:28;;;;;;;12.07;8.68;;;;;;;;;;1045976;28;20064;-65
2023/10/23 01:36:58;;;;;;;14.75;9.07;;;;;;;;;;1046633;28;20608;-64
2023/10/23 01:37:29;;;;;;;13.40;9.35;;;;;;;;;;1046475;28;20102;-65
2023/10/23 01:37:59;;;;;;;12.65;9.95;;;;;;;;;;1046110;28;20055;-65
2023/10/23 01:38:30;;;;;;;11.10;8.18;;;;;;;;;;1045168;28;20190;-65
2023/10/23 01:39:00;;;;;;;11.32;9.48;;;;;;;;;;1046853;28;20079;-65
2023/10/23 01:39:31;;;;;;;12.57;8.95;;;;;;;;;;1045997;28;20052;-65
2023/10/23 01:40:03;;;;;;;13.05;9.02;;;;;;;;;;1044936;28;20048;-64
2023/10/23 01:40:33;;;;;;;13.32;9.45;;;;;;;;;;1045604;28;20056;-65
2023/10/23 01:41:04;;;;;;;16.50;9.15;;;;;;;;;;1045924;28;20143;-65
2023/10/23 01:41:35;;;;;;;13.80;9.55;;;;;;;;;;1045613;28;20087;-65
2023/10/23 01:42:05;;;;;;;14.38;9.30;;;;;;;;;;1044066;28;20480;-65
2023/10/23 01:42:36;;;;;;;15.63;10.02;;;;;;;;;;1044920;28;20048;-66
2023/10/23 01:43:06;;;;;;;14.02;9.55;;;;;;;;;;1042493;28;20048;-64
2023/10/23 01:43:37;;;;;;;12.40;9.38;;;;;;;;;;1044988;28;20127;-65
2023/10/23 01:44:07;;;;;;;12.40;9.73;;;;;;;;;;1046189;28;20071;-65
2023/10/23 01:44:38;;;;;;;15.32;9.52;;;;;;;;;;1045426;28;20075;-67
2023/10/23 01:45:09;;;;;;;14.13;8.65;;;;;;;;;;1045199;28;20049;-66
2023/10/23 01:45:40;;;;;;;11.63;8.75;;;;;;;;;;1046110;28;20097;-65
2023/10/23 01:46:10;;;;;;;11.68;9.10;;;;;;;;;;1046388;28;20052;-65
2023/10/23 01:46:41;;;;;;;14.70;10.00;;;;;;;;;;1046454;28;20135;-64
2023/10/23 01:47:11;;;;;;;11.00;8.77;;;;;;;;;;1045195;28;20068;-64
2023/10/23 01:47:42;;;;;;;10.85;8.55;;;;;;;;;;1047274;28;20044;-65
2023/10/23 01:48:12;;;;;;;11.50;8.48;;;;;;;;;;1045216;28;20158;-64
2023/10/23 01:48:43;;;;;;;11.65;8.48;;;;;;;;;;1045720;28;20063;-66
2023/10/23 01:49:13;;;;;;;11.38;8.45;;;;;;;;;;1044223;28;20063;-65
2023/10/23 01:49:44;;;;;;;9.48;8.00;;;;;;;;;;1045394;28;20064;-66
2023/10/23 01:50:14;;;;;;;11.25;8.30;;;;;;;;;;1046162;28;20064;-66
2023/10/23 01:50:45;;;;;;;12.10;7.97;;;;;;;;;;1045870;28;20550;-66
2023/10/23 01:51:15;;;;;;;11.20;7.78;;;;;;;;;;1044932;28;20056;-65
2023/10/23 01:51:46;;;;;;;9.90;7.53;;;;;;;;;;1045117;28;20101;-65
2023/10/23 01:52:17;;;;;;;10.00;7.20;;;;;;;;;;1043834;28;20577;-64
2023/10/23 01:52:47;;;;;;;9.43;7.63;;;;;;;;;;1045097;28;20057;-65
2023/10/23 01:53:18;;;;;;;8.70;7.38;;;;;;;;;;1046105;28;20059;-64
2023/10/23 01:53:48;;;;;;;9.48;7.22;;;;;;;;;;1045995;28;20056;-65
2023/10/23 01:54:19;;;;;;;9.10;7.03;;;;;;;;;;1045758;28;20068;-65
2023/10/23 01:54:50;;;;;;;10.25;7.47;;;;;;;;;;1046193;28;20488;-66
2023/10/23 01:55:20;;;;;;;10.57;7.60;;;;;;;;;;1045142;28;20102;-65
2023/10/23 01:55:51;;;;;;;9.93;6.80;;;;;;;;;;1045575;28;20194;-64
2023/10/23 01:56:22;;;;;;;8.77;6.75;;;;;;;;;;1045124;28;20404;-64
2023/10/23 01:56:52;;;;;;;8.02;6.63;;;;;;;;;;1044669;28;20058;-65
2023/10/23 01:57:23;;;;;;;8.27;6.60;;;;;;;;;;1045620;28;20106;-64
2023/10/23 01:57:56;;;;;;;8.75;6.60;;;;;;;;;;1044387;28;20051;-64
2023/10/23 01:58:26;;;;;;;8.43;6.78;;;;;;;;;;1045732;28;20040;-65
2023/10/23 01:58:57;;;;;;;10.02;6.47;;;;;;;;;;1046318;28;20072;-66
2023/10/23 01:59:27;;;;;;;8.55;7.15;;;;;;;;;;1046013;28;20056;-65
2023/10/23 02:00:04;;;;;;;9.50;6.53;;;;;;;;;;1045987;28;20048;-65
2023/10/23 02:00:35;;;;;;;9.93;6.28;;;;;;;;;;1044724;28;20509;-65
2023/10/23 02:01:05;;;;;;;10.07;7.20;;;;;;;;;;1046717;28;20496;-65
2023/10/23 02:01:38;;;;;;;8.55;6.88;;;;;;;;;;1045292;28;20051;-65
2023/10/23 02:02:09;;;;;;;8.25;6.13;;;;;;;;;;1046031;28;20138;-65
2023/10/23 02:02:39;;;;;;;7.35;6.20;;;;;;;;;;1045546;28;20154;-66
2023/10/23 02:03:10;;;;;;;8.98;6.60;;;;;;;;;;1045805;28;20055;-65
2023/10/23 02:03:41;;;;;;;8.50;6.55;;;;;;;;;;1044386;28;20052;-65
2023/10/23 02:04:11;;;;;;;8.65;6.60;;;;;;;;;;1044858;28;20044;-66
2023/10/23 02:04:42;;;;;;;8.95;6.22;;;;;;;;;;1043313;28;20102;-65
2023/10/23 02:05:12;;;;;;;9.65;6.82;;;;;;;;;;1045427;28;20775;-65
2023/10/23 02:05:43;;;;;;;9.05;5.85;;;;;;;;;;1045485;28;20064;-65
2023/10/23 02:06:13;;;;;;;8.13;6.13;;;;;;;;;;1044552;28;20102;-65
2023/10/23 02:06:43;;;;;;;8.02;6.57;;;;;;;;;;1045267;28;20937;-64
2023/10/23 02:07:14;;;;;;;9.15;6.10;;;;;;;;;;1044848;28;20060;-66
2023/10/23 02:07:45;;;;;;;10.45;7.15;;;;;;;;;;1042923;28;20067;-65
2023/10/23 02:08:16;;;;;;;8.57;6.40;;;;;;;;;;1045332;28;20131;-65
2023/10/23 02:08:47;;;;;;;8.07;6.43;;;;;;;;;;1046448;28;20037;-64
2023/10/23 02:09:17;;;;;;;9.93;7.20;;;;;;;;;;1046122;28;20053;-64
2023/10/23 02:09:47;;;;;;;8.98;6.53;;;;;;;;;;1043224;28;20086;-65
2023/10/23 02:10:18;;;;;;;8.52;6.50;;;;;;;;;;1045333;28;20480;-64
2023/10/23 02:10:49;;;;;;;8.93;7.20;;;;;;;;;;1045929;28;20045;-64
2023/10/23 02:11:20;;;;;;;10.50;6.80;;;;;;;;;;1044437;28;20064;-65
2023/10/23 02:11:50;;;;;;;11.98;6.93;;;;;;;;;;1044147;28;20056;-64
2023/10/23 02:12:20;;;;;;;9.07;7.07;;;;;;;;;;1043929;28;20417;-64
2023/10/23 02:12:51;;;;;;;11.77;7.80;;;;;;;;;;1046794;28;20110;-66
2023/10/23 02:13:21;;;;;;;20.27;7.50;;;;;;;;;;1044650;28;20413;-65
2023/10/23 02:13:52;;;;;;;10.32;6.32;;;;;;;;;;1044193;28;20103;-64
2023/10/23 02:14:22;;;;;;;10.18;7.15;;;;;;;;;;1046050;28;20048;-65
2023/10/23 02:14:53;;;;;;;8.38;6.35;;;;;;;;;;1045702;28;20050;-64
2023/10/23 02:15:24;;;;;;;9.45;6.97;;;;;;;;;;1042742;28;20079;-65
2023/10/23 02:15:54;;;;;;;13.50;7.93;;;;;;;;;;1045171;28;20048;-64
2023/10/23 02:16:25;;;;;;;12.10;8.13;;;;;;;;;;1044330;28;20612;-64
2023/10/23 02:16:55;;;;;;;11.57;8.20;;;;;;;;;;1043577;28;20139;-64
2023/10/23 02:17:26;;;;;;;12.20;8.60;;;;;;;;;;1045144;28;20066;-65
2023/10/23 02:17:56;;;;;;;14.40;8.10;;;;;;;;;;1044111;28;20492;-65
2023/10/23 02:18:27;;;;;;;15.55;8.95;;;;;;;;;;1044801;28;20041;-65
2023/10/23 02:18:57;;;;;;;13.70;9.52;;;;;;;;;;1045564;28;20075;-64
2023/10/23 02:19:29;;;;;;;14.77;9.50;;;;;;;;;;1045096;28;20074;-65
2023/10/23 02:20:00;;;;;;;14.23;9.43;;;;;;;;;;1044947;28;20087;-64
2023/10/23 02:20:30;;;;;;;14.82;9.35;;;;;;;;;;1045725;28;21241;-64
2023/10/23 02:21:01;;;;;;;11.73;9.57;;;;;;;;;;1046439;28;20049;-64
2023/10/23 02:21:32;;;;;;;15.00;10.27;;;;;;;;;;1044300;28;20064;-65
2023/10/23 02:22:02;;;;;;;13.40;9.52;;;;;;;;;;1045131;28;20052;-65
2023/10/23 02:22:33;;;;;;;14.55;9.85;;;;;;;;;;1045754;28;20052;-64
2023/10/23 02:23:04;;;;;;;12.27;9.07;;;;;;;;;;1046182;28;20044;-65
2023/10/23 02:23:34;;;;;;;15.57;9.57;;;;;;;;;;1044875;28;20059;-65
2023/10/23 02:24:05;;;;;;;14.20;9.50;;;;;;;;;;1045827;28;20057;-64
2023/10/23 02:24:35;;;;;;;16.23;9.38;;;;;;;;;;1044169;28;20063;-64
2023/10/23 02:25:06;;;;;;;14.02;9.73;;;;;;;;;;1044470;28;20044;-66
2023/10/23 02:25:36;;;;;;;15.45;9.45;;;;;;;;;;1044642;28;20044;-65
2023/10/23 02:26:07;;;;;;;15.70;9.32;;;;;;;;;;1045180;28;20128;-66
2023/10/23 02:26:38;;;;;;;14.65;9.57;;;;;;;;;;1044348;28;20481;-64
2023/10/23 02:27:08;;;;;;;14.00;9.85;;;;;;;;;;1046400;28;20158;-66
2023/10/23 02:27:39;;;;;;;15.05;10.07;;;;;;;;;;1043506;28;20044;-65
2023/10/23 02:28:09;;;;;;;14.00;9.60;;;;;;;;;;1043566;28;20049;-65
2023/10/23 02:28:40;;;;;;;15.20;10.32;;;;;;;;;;1044194;28;20131;-64
2023/10/23 02:29:11;;;;;;;14.13;9.57;;;;;;;;;;1046099;28;20447;-65
2023/10/23 02:29:41;;;;;;;18.48;11.73;;;;;;;;;;1044658;28;20045;-65
2023/10/23 02:30:12;;;;;;;15.80;9.43;;;;;;;;;;1042323;28;20057;-65
2023/10/23 02:30:42;;;;;;;15.23;10.40;;;;;;;;;;1044157;28;20033;-65
2023/10/23 02:31:14;;;;;;;15.77;11.15;;;;;;;;;;1044616;28;20083;-65
2023/10/23 02:31:44;;;;;;;18.30;10.77;;;;;;;;;;1046884;28;20049;-65
2023/10/23 02:32:15;;;;;;;13.85;10.75;;;;;;;;;;1043011;28;20528;-64
2023/10/23 02:32:45;;;;;;;14.80;10.88;;;;;;;;;;1046993;28;20556;-64
2023/10/23 02:33:16;;;;;;;18.70;11.43;;;;;;;;;;1044044;28;20516;-65
2023/10/23 02:33:46;;;;;;;16.23;10.50;;;;;;;;;;1046584;28;20053;-65
2023/10/23 02:34:17;;;;;;;16.95;11.15;;;;;;;;;;1043947;28;20132;-65
2023/10/23 02:34:48;;;;;;;17.23;10.55;;;;;;;;;;1045129;28;20068;-65
2023/10/23 02:35:18;;;;;;;14.00;9.73;;;;;;;;;;1042847;28;20445;-65
2023/10/23 02:35:49;;;;;;;16.80;10.68;;;;;;;;;;1046863;28;20052;-65
2023/10/23 02:36:19;;;;;;;17.00;11.00;;;;;;;;;;1045722;28;20137;-64
2023/10/23 02:36:50;;;;;;;15.82;10.43;;;;;;;;;;1046105;28;20166;-65
2023/10/23 02:37:21;;;;;;;15.93;10.82;;;;;;;;;;1045103;28;20072;-65
2023/10/23 02:37:52;;;;;;;14.38;11.07;;;;;;;;;;1045528;28;20037;-64
2023/10/23 02:38:22;;;;;;;14.63;10.63;;;;;;;;;;1046058;28;20044;-64
2023/10/23 02:38:54;;;;;;;17.50;11.13;;;;;;;;;;1045123;28;20052;-65
2023/10/23 02:39:24;;;;;;;13.00;10.00;;;;;;;;;;1045330;28;20048;-64
2023/10/23 02:39:56;;;;;;;12.90;10.23;;;;;;;;;;1045249;28;20052;-64
2023/10/23 02:40:27;;;;;;;14.48;10.82;;;;;;;;;;1045064;28;20370;-65
2023/10/23 02:40:57;;;;;;;17.33;10.75;;;;;;;;;;1043080;28;20416;-65
2023/10/23 02:41:29;;;;;;;19.63;12.00;;;;;;;;;;1045323;28;20544;-64
2023/10/23 02:42:00;;;;;;;16.08;11.13;;;;;;;;;;1045624;28;20097;-65
2023/10/23 02:42:30;;;;;;;15.02;11.52;;;;;;;;;;1046913;28;20105;-65
2023/10/23 02:43:01;;;;;;;15.52;11.30;;;;;;;;;;1045344;28;20064;-65
2023/10/23 02:43:32;;;;;;;17.33;11.90;;;;;;;;;;1045956;28;20158;-64
2023/10/23 02:44:02;;;;;;;16.30;11.77;;;;;;;;;;1044558;28;20413;-64
2023/10/23 02:44:33;;;;;;;15.88;10.82;;;;;;;;;;1044835;28;20061;-65
2023/10/23 02:45:04;;;;;;;15.63;10.75;;;;;;;;;;1044297;28;20052;-64
2023/10/23 02:45:35;;;;;;;19.65;11.38;;;;;;;;;;1043975;28;20769;-64
2023/10/23 02:46:05;;;;;;;15.32;10.82;;;;;;;;;;1045957;28;20587;-65
2023/10/23 02:46:38;;;;;;;17.60;10.50;;;;;;;;;;1046650;28;20059;-63
2023/10/23 02:47:08;;;;;;;15.30;10.63;;;;;;;;;;1045191;28;20052;-65
2023/10/23 02:47:39;;;;;;;15.73;11.02;;;;;;;;;;1046019;28;20065;-63
2023/10/23 02:48:09;;;;;;;17.58;10.75;;;;;;;;;;1045141;28;20131;-64
2023/10/23 02:48:40;;;;;;;17.35;11.18;;;;;;;;;;1045113;28;20099;-64
2023/10/23 02:49:11;;;;;;;17.88;11.60;;;;;;;;;;1045832;28;20052;-63
2023/10/23 02:49:42;;;;;;;19.73;12.07;;;;;;;;;;1045749;28;20139;-65
2023/10/23 02:50:12;;;;;;;14.73;10.80;;;;;;;;;;1042660;28;20057;-64
2023/10/23 02:50:53;;;;;;;20.73;11.35;;;;;;;;;;1045740;28;20160;-65
2023/10/23 02:51:24;;;;;;;16.27;10.68;;;;;;;;;;1044617;28;20099;-65
2023/10/23 02:51:54;;;;;;;19.23;10.70;;;;;;;;;;1046409;28;20048;-65
2023/10/23 02:52:25;;;;;;;19.55;11.10;;;;;;;;;;1044227;28;20049;-65
2023/10/23 02:52:56;;;;;;;17.10;11.65;;;;;;;;;;1045439;28;20788;-65
2023/10/23 02:53:26;;;;;;;15.70;11.95;;;;;;;;;;1045049;28;20052;-65
2023/10/23 02:53:57;;;;;;;14.50;10.88;;;;;;;;;;1044690;28;20055;-65
2023/10/23 02:54:28;;;;;;;15.27;10.73;;;;;;;;;;1046469;28;20064;-65
2023/10/23 02:54:59;;;;;;;16.40;11.40;;;;;;;;;;1045411;28;20040;-64
2023/10/23 02:55:29;;;;;;;15.40;11.10;;;;;;;;;;1045930;28;20118;-65
2023/10/23 02:56:00;;;;;;;16.70;10.50;;;;;;;;;;1042955;28;20057;-63
2023/10/23 02:56:32;;;;;;;18.67;11.93;;;;;;;;;;1045188;28;20078;-64
2023/10/23 02:57:02;;;;;;;15.27;11.23;;;;;;;;;;1044884;28;20044;-64
2023/10/23 02:57:33;;;;;;;16.55;10.75;;;;;;;;;;1044284;28;20771;-65
2023/10/23 02:58:03;;;;;;;15.77;11.57;;;;;;;;;;1043562;28;20045;-63
2023/10/23 02:58:35;;;;;;;17.55;11.57;;;;;;;;;;1046567;28;20678;-64
2023/10/23 02:59:06;;;;;;;16.58;10.65;;;;;;;;;;1045090;28;20052;-64
2023/10/23 02:59:37;;;;;;;16.00;11.23;;;;;;;;;;1045480;28;20052;-64
2023/10/23 03:00:08;;;;;;;17.55;11.18;;;;;;;;;;1043993;28;20118;-65
2023/10/23 03:00:41;;;;;;;16.75;11.07;;;;;;;;;;1044747;28;20063;-64
2023/10/23 03:01:21;;;;;;;13.77;10.88;;;;;;;;;;1045383;28;20087;-65
2023/10/23 03:01:51;;;;;;;14.52;11.20;;;;;;;;;;1045191;28;20048;-64
2023/10/23 03:02:22;;;;;;;16.50;11.20;;;;;;;;;;1044860;28;20048;-65